Time;durP1;ratioP1;P1;durP2;ratioP2;P2;SDS_P1;SDS_P2;PMS_P1;PMS_P2;Temp;Humidity;BMP_temperature;BMP_pressure;BME280_temperature;BME280_humidity;BME280_pressure;Samples;Min_cycle;Max_cycle;Signal;HPM_P1;HPM_P2
2023/10/19 00:01:55;;;;;;;12.80;10.38;;;11.70;99.90;;;;;;4976862;28;20113;-47
2023/10/19 00:04:22;;;;;;;18.23;11.60;;;11.80;99.90;;;;;;4974922;28;20035;-50
2023/10/19 00:06:48;;;;;;;13.57;10.27;;;11.70;99.90;;;;;;4976341;28;20066;-48
2023/10/19 00:09:15;;;;;;;16.58;11.63;;;11.70;99.90;;;;;;4975646;28;20027;-52
2023/10/19 00:11:41;;;;;;;13.43;10.00;;;11.80;99.90;;;;;;4976071;28;20113;-48
2023/10/19 00:14:15;;;;;;;11.45;9.63;;;11.70;99.90;;;;;;4975329;28;20023;-51
2023/10/19 00:16:44;;;;;;;13.07;9.90;;;11.80;99.90;;;;;;4975796;28;20027;-47
2023/10/19 00:19:11;;;;;;;13.57;9.95;;;11.80;99.90;;;;;;4975239;28;20034;-45
2023/10/19 00:21:50;;;;;;;13.90;11.13;;;11.90;99.90;;;;;;4973667;28;20058;-50
2023/10/19 00:24:17;;;;;;;11.88;10.60;;;11.90;99.90;;;;;;4974700;28;20090;-45
2023/10/19 00:26:44;;;;;;;12.65;10.73;;;11.90;99.90;;;;;;4973224;28;20430;-48
2023/10/19 00:29:30;;;;;;;23.08;11.52;;;11.80;99.90;;;;;;4973401;28;20664;-45
2023/10/19 00:31:56;;;;;;;15.15;11.88;;;11.90;99.90;;;;;;4975919;28;20019;-47
2023/10/19 00:34:22;;;;;;;16.17;11.68;;;11.90;99.90;;;;;;4976288;28;20023;-50
2023/10/19 00:36:50;;;;;;;15.48;10.80;;;11.90;99.90;;;;;;4975276;28;20054;-45
2023/10/19 00:39:20;;;;;;;15.20;11.88;;;11.90;99.90;;;;;;4976009;28;20027;-48
2023/10/19 00:41:47;;;;;;;15.73;11.77;;;11.70;99.90;;;;;;4976284;28;20459;-46
2023/10/19 00:44:16;;;;;;;19.15;11.90;;;12.00;99.90;;;;;;4975504;28;20105;-46
2023/10/19 00:49:14;;;;;;;14.73;12.00;;;12.00;99.90;;;;;;4976204;28;20034;-50
2023/10/19 00:52:10;;;;;;;14.10;11.88;;;12.00;99.90;;;;;;4977048;28;20019;-50
2023/10/19 00:54:42;;;;;;;16.50;11.73;;;12.00;99.90;;;;;;4974642;28;20026;-49
2023/10/19 00:57:10;;;;;;;20.17;13.95;;;11.90;99.90;;;;;;4976366;28;20096;-48
2023/10/19 00:59:43;;;;;;;16.92;13.85;;;12.20;99.90;;;;;;4975811;28;20411;-47
2023/10/19 01:02:23;;;;;;;22.42;15.27;;;12.10;99.90;;;;;;4975855;28;20486;-48
2023/10/19 01:04:56;;;;;;;17.15;14.20;;;12.10;99.90;;;;;;4976643;28;20027;-48
2023/10/19 01:09:53;;;;;;;18.80;15.70;;;12.00;99.90;;;;;;4980291;28;20031;-48
2023/10/19 01:15:19;;;;;;;19.13;16.73;;;12.10;99.90;;;;;;4978954;28;20019;-45
2023/10/19 01:17:52;;;;;;;22.20;16.00;;;12.10;99.90;;;;;;4978108;28;20031;-49
2023/10/19 01:20:34;;;;;;;23.08;16.90;;;12.00;99.90;;;;;;4978341;28;20410;-46
2023/10/19 01:28:38;;;;;;;26.17;18.08;;;12.20;99.90;;;;;;4977819;28;20058;-49
2023/10/19 01:31:06;;;;;;;21.20;15.88;;;12.20;99.90;;;;;;4977468;28;20061;-47
2023/10/19 01:33:34;;;;;;;22.80;16.27;;;12.30;99.90;;;;;;4977916;28;20022;-49
2023/10/19 01:36:12;;;;;;;20.50;15.45;;;12.30;99.90;;;;;;4977657;28;20033;-47
2023/10/19 01:38:38;;;;;;;24.38;16.20;;;12.30;99.90;;;;;;4977804;28;20026;-50
2023/10/19 01:41:18;;;;;;;19.80;15.95;;;12.60;99.90;;;;;;4978174;28;20026;-50
2023/10/19 01:43:44;;;;;;;20.40;15.20;;;12.30;99.90;;;;;;4979599;28;20022;-47
2023/10/19 01:46:12;;;;;;;24.48;17.25;;;12.30;99.90;;;;;;4976365;28;20355;-50
2023/10/19 01:48:41;;;;;;;22.33;15.82;;;12.40;99.90;;;;;;4978296;28;20426;-45
2023/10/19 01:51:13;;;;;;;21.17;16.52;;;12.50;99.90;;;;;;4979857;28;20489;-49
2023/10/19 01:53:43;;;;;;;22.88;17.50;;;12.50;99.90;;;;;;4976877;28;20031;-48
2023/10/19 01:56:09;;;;;;;24.20;17.77;;;12.50;99.90;;;;;;4976449;28;20081;-48
2023/10/19 01:58:39;;;;;;;20.80;17.08;;;12.60;99.90;;;;;;4976572;28;20027;-46
2023/10/19 02:03:41;;;;;;;25.08;18.45;;;12.70;99.90;;;;;;4977127;28;20031;-45
2023/10/19 02:06:17;;;;;;;24.30;18.13;;;12.80;99.90;;;;;;4976521;28;20109;-47
2023/10/19 02:08:51;;;;;;;24.48;17.80;;;12.80;99.90;;;;;;4976550;28;20019;-49
2023/10/19 02:11:21;;;;;;;22.75;18.58;;;12.80;99.90;;;;;;4976237;28;20045;-50
2023/10/19 02:13:49;;;;;;;22.33;17.40;;;12.80;99.90;;;;;;4975921;28;20019;-43
2023/10/19 02:16:16;;;;;;;22.67;17.55;;;12.80;99.90;;;;;;4973354;28;20121;-48
2023/10/19 02:18:44;;;;;;;25.95;18.65;;;12.90;99.90;;;;;;4975697;28;20034;-44
2023/10/19 02:21:12;;;;;;;24.73;18.08;;;12.80;99.90;;;;;;4975953;28;20106;-45
2023/10/19 02:23:44;;;;;;;25.63;18.10;;;12.90;99.90;;;;;;4975774;28;20027;-46
2023/10/19 02:26:13;;;;;;;22.23;17.05;;;12.90;99.90;;;;;;4975724;28;20037;-46
2023/10/19 02:28:39;;;;;;;24.58;17.10;;;12.80;99.90;;;;;;4975412;28;20488;-45
2023/10/19 02:31:15;;;;;;;23.52;18.00;;;12.80;99.90;;;;;;4975621;28;20027;-50
2023/10/19 02:33:45;;;;;;;23.15;17.35;;;12.80;99.90;;;;;;4975331;28;20021;-45
2023/10/19 02:36:15;;;;;;;28.20;18.50;;;12.90;99.90;;;;;;4975428;28;20046;-47
2023/10/19 02:38:44;;;;;;;24.30;18.38;;;12.90;99.90;;;;;;4974912;28;20400;-48
2023/10/19 02:41:10;;;;;;;26.40;18.52;;;12.80;99.90;;;;;;4975839;28;20049;-52
2023/10/19 02:43:37;;;;;;;24.17;19.85;;;12.80;99.90;;;;;;4976067;28;20027;-52
2023/10/19 02:46:03;;;;;;;27.58;19.13;;;13.10;99.90;;;;;;4975016;28;20039;-48
2023/10/19 02:48:29;;;;;;;23.38;18.15;;;12.90;99.90;;;;;;4975115;28;20102;-46
2023/10/19 02:50:54;;;;;;;23.02;18.15;;;12.90;99.90;;;;;;4973581;28;20121;-48
2023/10/19 02:53:20;;;;;;;25.05;18.20;;;12.80;99.90;;;;;;4974858;28;20055;-48
2023/10/19 02:55:45;;;;;;;22.27;17.77;;;12.90;99.90;;;;;;4975995;28;20037;-46
2023/10/19 02:58:11;;;;;;;23.13;18.95;;;12.80;99.90;;;;;;4974073;28;20086;-50
2023/10/19 03:00:37;;;;;;;27.38;19.75;;;12.50;99.90;;;;;;4975518;28;20074;-51
2023/10/19 03:03:05;;;;;;;28.90;19.67;;;12.80;99.90;;;;;;4975426;28;20022;-46
2023/10/19 03:05:31;;;;;;;27.58;19.08;;;12.90;99.90;;;;;;4975413;28;20018;-49
2023/10/19 03:07:56;;;;;;;27.73;20.65;;;12.90;99.90;;;;;;4974074;28;20019;-48
2023/10/19 03:10:34;;;;;;;30.63;19.98;;;12.90;99.90;;;;;;4975709;28;20030;-47
2023/10/19 03:13:02;;;;;;;28.27;19.77;;;12.90;99.90;;;;;;4975737;28;20023;-46
2023/10/19 03:15:30;;;;;;;26.65;20.00;;;13.10;99.90;;;;;;4975417;28;20027;-50
2023/10/19 03:17:55;;;;;;;28.63;20.15;;;12.80;99.90;;;;;;4974959;28;20027;-47
2023/10/19 03:20:24;;;;;;;26.75;19.55;;;12.90;99.90;;;;;;4975378;28;20165;-49
2023/10/19 03:22:50;;;;;;;27.42;20.80;;;13.00;99.90;;;;;;4975522;28;20051;-46
2023/10/19 03:26:17;;;;;;;29.75;20.15;;;12.90;99.90;;;;;;4976893;28;20094;-48
2023/10/19 03:28:16;;;;;;;31.27;21.67;;;12.60;99.90;;;;;;4974973;28;20117;-50
2023/10/19 03:30:41;;;;;;;28.98;20.30;;;12.80;99.90;;;;;;4975504;28;20082;-51
2023/10/19 03:33:08;;;;;;;30.83;20.73;;;12.80;99.90;;;;;;4975178;28;20035;-52
2023/10/19 03:35:37;;;;;;;31.17;20.42;;;12.80;99.90;;;;;;4974465;28;20034;-50
2023/10/19 03:38:07;;;;;;;29.92;20.83;;;13.00;99.90;;;;;;4974922;28;20486;-47
2023/10/19 03:40:35;;;;;;;30.35;20.92;;;12.80;99.90;;;;;;4975370;28;20031;-46
2023/10/19 03:43:05;;;;;;;29.73;21.83;;;12.80;99.90;;;;;;4976472;28;20054;-50
2023/10/19 03:45:33;;;;;;;32.28;22.17;;;12.80;99.90;;;;;;4976139;28;20055;-49
2023/10/19 03:48:06;;;;;;;26.95;20.55;;;12.80;99.90;;;;;;4976039;28;20035;-47
2023/10/19 03:50:33;;;;;;;28.10;21.58;;;12.80;99.90;;;;;;4976597;28;20037;-54
2023/10/19 03:52:58;;;;;;;26.30;19.60;;;12.80;99.90;;;;;;4976802;28;20034;-48
2023/10/19 03:55:24;;;;;;;27.45;20.67;;;12.80;99.90;;;;;;4976351;28;20014;-53
2023/10/19 03:57:54;;;;;;;27.85;19.15;;;14.00;99.90;;;;;;4976187;28;20029;-46
2023/10/19 04:00:24;;;;;;;25.55;20.10;;;12.80;99.90;;;;;;4976244;28;20506;-49
2023/10/19 04:02:55;;;;;;;25.45;20.67;;;12.70;99.90;;;;;;4975790;28;20095;-48
2023/10/19 04:05:22;;;;;;;27.00;19.50;;;12.40;99.90;;;;;;4975873;28;20034;-48
2023/10/19 04:07:50;;;;;;;27.25;20.88;;;12.80;99.90;;;;;;4976227;28;20027;-45
2023/10/19 04:13:00;;;;;;;27.50;21.15;;;12.80;99.90;;;;;;4976014;28;20079;-50
2023/10/19 04:15:29;;;;;;;28.02;20.55;;;12.70;99.90;;;;;;4976301;28;20023;-47
2023/10/19 04:17:58;;;;;;;32.90;21.27;;;12.70;99.90;;;;;;4976180;28;20023;-46
2023/10/19 04:20:42;;;;;;;25.65;20.52;;;12.70;99.90;;;;;;4975981;28;20023;-47
2023/10/19 04:23:10;;;;;;;31.25;22.02;;;12.70;99.90;;;;;;4976359;28;20630;-50
2023/10/19 04:25:36;;;;;;;31.85;22.10;;;12.70;99.90;;;;;;4976338;28;20075;-50
2023/10/19 04:28:03;;;;;;;28.52;20.98;;;12.60;99.90;;;;;;4976412;28;20038;-50
2023/10/19 04:30:29;;;;;;;31.83;21.38;;;12.70;99.90;;;;;;4976234;28;20023;-47
2023/10/19 04:32:57;;;;;;;31.58;19.73;;;12.60;99.90;;;;;;4976695;28;20022;-48
2023/10/19 04:35:22;;;;;;;26.15;18.73;;;12.70;99.90;;;;;;4975916;28;20026;-48
2023/10/19 04:37:54;;;;;;;26.73;20.02;;;12.70;99.90;;;;;;4975218;28;20034;-49
2023/10/19 04:40:21;;;;;;;26.88;19.50;;;12.70;99.90;;;;;;4978835;28;20058;-52
2023/10/19 04:42:48;;;;;;;28.40;20.13;;;12.70;99.90;;;;;;4978764;28;20027;-53
2023/10/19 04:45:13;;;;;;;31.63;21.38;;;12.80;99.90;;;;;;4979929;28;20078;-48
2023/10/19 04:47:39;;;;;;;33.17;21.65;;;12.80;99.90;;;;;;4979603;28;20026;-48
2023/10/19 04:50:06;;;;;;;35.28;24.23;;;12.70;99.90;;;;;;4980030;28;20117;-50
2023/10/19 04:52:32;;;;;;;38.53;23.98;;;12.90;99.90;;;;;;4979885;28;20042;-48
2023/10/19 04:54:59;;;;;;;39.10;23.88;;;12.90;99.90;;;;;;4979589;28;20023;-47
2023/10/19 04:57:25;;;;;;;38.00;23.77;;;12.70;99.90;;;;;;4979220;28;20029;-54
2023/10/19 04:59:51;;;;;;;36.20;24.63;;;12.80;99.90;;;;;;4979038;28;20035;-44
2023/10/19 05:02:17;;;;;;;39.72;24.42;;;12.80;99.90;;;;;;4979657;28;20038;-48
2023/10/19 05:04:43;;;;;;;38.47;25.30;;;12.80;99.90;;;;;;4979236;28;20038;-47
2023/10/19 05:07:12;;;;;;;44.75;25.25;;;12.80;99.90;;;;;;4978794;28;20576;-50
2023/10/19 05:09:39;;;;;;;41.97;23.85;;;12.90;99.90;;;;;;4979674;28;20058;-50
2023/10/19 05:12:09;;;;;;;45.70;25.30;;;12.70;99.90;;;;;;4979313;28;20078;-49
2023/10/19 05:14:36;;;;;;;43.28;26.25;;;12.80;99.90;;;;;;4978278;28;20106;-48
2023/10/19 05:17:04;;;;;;;43.50;25.52;;;13.00;99.90;;;;;;4979350;28;20035;-48
2023/10/19 05:19:33;;;;;;;42.20;24.33;;;12.90;99.90;;;;;;4976556;28;20030;-48
2023/10/19 05:22:00;;;;;;;47.53;28.35;;;12.90;99.90;;;;;;4974479;28;20570;-49
2023/10/19 05:24:27;;;;;;;37.83;25.08;;;12.80;99.90;;;;;;4975559;28;20041;-49
2023/10/19 05:26:56;;;;;;;43.88;25.65;;;12.80;99.90;;;;;;4975388;28;20166;-47
2023/10/19 05:29:23;;;;;;;47.08;27.85;;;12.90;99.90;;;;;;4974453;28;20212;-49
2023/10/19 05:31:53;;;;;;;52.28;28.23;;;12.90;99.90;;;;;;4975769;28;20026;-48
2023/10/19 05:34:22;;;;;;;41.50;25.50;;;12.80;99.90;;;;;;4975463;28;20034;-47
2023/10/19 05:36:48;;;;;;;49.13;28.02;;;12.80;99.90;;;;;;4975592;28;20027;-47
2023/10/19 05:39:17;;;;;;;46.72;27.63;;;12.90;99.90;;;;;;4974567;28;20038;-51
2023/10/19 05:41:43;;;;;;;46.30;28.20;;;12.90;99.90;;;;;;4975730;28;20027;-48
2023/10/19 05:44:09;;;;;;;43.55;26.85;;;12.90;99.90;;;;;;4975948;28;20113;-47
2023/10/19 05:46:35;;;;;;;50.63;30.63;;;12.90;99.90;;;;;;4973892;28;20031;-48
2023/10/19 05:49:03;;;;;;;50.03;28.02;;;13.00;99.90;;;;;;4974939;28;20089;-50
2023/10/19 05:51:29;;;;;;;46.67;27.20;;;12.90;99.90;;;;;;4974951;28;20446;-46
2023/10/19 05:54:01;;;;;;;44.83;28.83;;;13.00;99.90;;;;;;4975315;28;20034;-47
2023/10/19 05:56:27;;;;;;;42.75;27.92;;;13.00;99.90;;;;;;4973694;28;20033;-51
2023/10/19 05:58:53;;;;;;;42.25;26.75;;;12.90;99.90;;;;;;4973865;28;20050;-48
2023/10/19 06:01:19;;;;;;;43.25;26.13;;;13.00;99.90;;;;;;4975110;28;20015;-48
2023/10/19 06:03:45;;;;;;;40.22;26.75;;;13.00;99.90;;;;;;4975004;28;20077;-49
2023/10/19 06:06:11;;;;;;;39.22;26.75;;;12.90;99.90;;;;;;4975026;28;20029;-53
2023/10/19 06:08:36;;;;;;;46.15;26.30;;;12.90;99.90;;;;;;4973507;28;20026;-46
2023/10/19 06:11:02;;;;;;;43.17;26.98;;;12.90;99.90;;;;;;4974786;28;20402;-47
2023/10/19 06:13:29;;;;;;;40.30;26.88;;;13.00;99.90;;;;;;4973290;28;20058;-47
2023/10/19 06:15:55;;;;;;;38.85;26.08;;;12.90;99.90;;;;;;4974733;28;20027;-47
2023/10/19 06:18:20;;;;;;;46.00;28.25;;;12.90;99.90;;;;;;4974645;28;20126;-47
2023/10/19 06:20:47;;;;;;;45.13;28.30;;;12.90;99.90;;;;;;4974921;28;20031;-49
2023/10/19 06:23:13;;;;;;;41.17;26.25;;;13.00;99.90;;;;;;4973867;28;20033;-47
2023/10/19 06:25:38;;;;;;;43.70;28.33;;;13.00;99.90;;;;;;4974620;28;20031;-49
2023/10/19 06:28:05;;;;;;;46.08;29.73;;;13.00;99.90;;;;;;4974348;28;20459;-47
2023/10/19 06:30:31;;;;;;;49.88;30.42;;;13.10;99.90;;;;;;4974037;28;20031;-51
2023/10/19 06:33:01;;;;;;;50.75;29.30;;;13.00;99.90;;;;;;4973321;28;20022;-48
2023/10/19 06:35:27;;;;;;;48.35;28.83;;;13.10;99.90;;;;;;4974294;28;20422;-51
2023/10/19 06:37:54;;;;;;;49.70;29.52;;;13.10;99.90;;;;;;4974384;28;20089;-46
2023/10/19 06:40:21;;;;;;;48.42;29.02;;;13.10;99.90;;;;;;4972868;28;20023;-51
2023/10/19 06:42:49;;;;;;;56.17;29.77;;;13.10;99.90;;;;;;4974324;28;20022;-48
2023/10/19 06:45:15;;;;;;;48.85;30.75;;;13.10;99.90;;;;;;4973796;28;20045;-49
2023/10/19 06:47:45;;;;;;;48.03;29.48;;;13.20;99.90;;;;;;4973859;28;20031;-47
2023/10/19 06:50:16;;;;;;;46.42;28.75;;;13.20;99.90;;;;;;4974016;28;20059;-47
2023/10/19 06:52:43;;;;;;;44.20;27.65;;;13.20;99.90;;;;;;4973903;28;20134;-48
2023/10/19 06:55:22;;;;;;;48.65;30.13;;;13.20;99.90;;;;;;4973698;28;20042;-52
2023/10/19 06:57:53;;;;;;;48.65;28.85;;;13.20;99.90;;;;;;4973733;28;20049;-46
2023/10/19 07:00:26;;;;;;;43.17;26.98;;;13.20;99.90;;;;;;4972440;28;20044;-47
2023/10/19 07:02:53;;;;;;;39.60;28.00;;;13.20;99.90;;;;;;4971753;28;20029;-46
2023/10/19 07:05:24;;;;;;;47.53;30.45;;;13.30;99.90;;;;;;4973739;28;20034;-46
2023/10/19 07:07:51;;;;;;;53.90;29.52;;;13.40;99.90;;;;;;4973560;28;20022;-49
2023/10/19 07:10:18;;;;;;;50.03;30.27;;;13.40;99.90;;;;;;4973510;28;20030;-45
2023/10/19 07:12:46;;;;;;;57.15;29.35;;;13.40;99.90;;;;;;4972268;28;20031;-47
2023/10/19 07:15:15;;;;;;;53.25;32.20;;;13.40;99.90;;;;;;4973482;28;20031;-47
2023/10/19 07:17:41;;;;;;;52.92;30.60;;;13.40;99.90;;;;;;4973215;28;20030;-47
2023/10/19 07:20:08;;;;;;;55.60;32.08;;;13.40;99.90;;;;;;4965518;28;20022;-50
2023/10/19 07:22:37;;;;;;;54.78;33.08;;;13.50;99.90;;;;;;4967130;28;20031;-52
2023/10/19 07:25:05;;;;;;;50.63;31.63;;;13.30;99.90;;;;;;4972921;28;20029;-47
2023/10/19 07:27:31;;;;;;;46.47;30.20;;;13.50;99.90;;;;;;4971693;28;20030;-49
2023/10/19 07:29:57;;;;;;;46.47;32.20;;;13.50;99.90;;;;;;4973376;28;20027;-51
2023/10/19 07:32:23;;;;;;;41.50;29.08;;;13.50;99.90;;;;;;4961249;28;20396;-51
2023/10/19 07:34:49;;;;;;;50.22;29.98;;;13.50;99.90;;;;;;4954055;28;20106;-50
2023/10/19 07:37:17;;;;;;;39.28;27.67;;;13.50;99.90;;;;;;4953915;28;20603;-51
2023/10/19 07:39:47;;;;;;;39.65;27.05;;;13.60;99.90;;;;;;4953864;28;20035;-47
2023/10/19 07:42:14;;;;;;;34.65;26.73;;;13.60;99.90;;;;;;4953814;28;20035;-51
2023/10/19 07:44:40;;;;;;;37.08;25.30;;;13.70;99.90;;;;;;4966145;28;20038;-48
2023/10/19 07:47:08;;;;;;;33.33;24.50;;;13.60;99.90;;;;;;4973183;28;20031;-48
2023/10/19 07:49:38;;;;;;;34.97;23.60;;;13.80;99.90;;;;;;4971562;28;20043;-48
2023/10/19 07:52:07;;;;;;;29.20;22.92;;;13.90;99.90;;;;;;4973330;28;20030;-48
2023/10/19 07:54:34;;;;;;;28.83;22.48;;;14.00;99.90;;;;;;4971490;28;20475;-51
2023/10/19 07:57:03;;;;;;;25.90;20.75;;;14.00;99.90;;;;;;4973004;28;20093;-49
2023/10/19 07:59:29;;;;;;;27.92;21.08;;;14.00;99.90;;;;;;4972962;28;20034;-49
2023/10/19 08:01:54;;;;;;;31.75;20.48;;;14.00;99.90;;;;;;4972898;28;20027;-52
2023/10/19 08:04:20;;;;;;;27.20;18.77;;;14.10;99.90;;;;;;4972610;28;20195;-52
2023/10/19 08:06:47;;;;;;;24.98;18.85;;;14.20;99.90;;;;;;4972995;28;20030;-49
2023/10/19 08:09:12;;;;;;;25.88;19.48;;;14.20;99.90;;;;;;4972222;28;20023;-52
2023/10/19 08:11:38;;;;;;;26.02;19.13;;;14.30;99.90;;;;;;4971667;28;20037;-49
2023/10/19 08:14:05;;;;;;;23.08;17.20;;;14.30;99.90;;;;;;4971535;28;20026;-53
2023/10/19 08:16:30;;;;;;;20.67;16.90;;;14.40;99.90;;;;;;4972520;28;20087;-48
2023/10/19 08:18:58;;;;;;;22.65;17.45;;;14.50;99.90;;;;;;4971125;28;20039;-55
2023/10/19 08:21:23;;;;;;;23.65;17.33;;;14.60;99.90;;;;;;4970932;28;20031;-51
2023/10/19 08:23:49;;;;;;;25.08;17.23;;;14.70;99.90;;;;;;4970366;28;20865;-51
2023/10/19 08:26:15;;;;;;;20.50;16.00;;;14.90;99.90;;;;;;4971677;28;20039;-49
2023/10/19 08:28:40;;;;;;;18.83;14.90;;;15.00;99.90;;;;;;4970781;28;20046;-59
2023/10/19 08:31:10;;;;;;;18.90;14.07;;;14.90;99.90;;;;;;4972128;28;20097;-57
2023/10/19 08:33:38;;;;;;;15.80;13.57;;;15.00;99.90;;;;;;4956894;28;20023;-57
2023/10/19 08:36:05;;;;;;;14.77;12.88;;;15.20;99.90;;;;;;4964540;28;20023;-46
2023/10/19 08:38:33;;;;;;;19.73;12.40;;;;;;;;;;4972127;28;20031;-51
2023/10/19 08:40:59;;;;;;;80.07;58.47;;;15.20;99.90;;;;;;4972589;28;20037;-51
2023/10/19 08:43:25;;;;;;;57.10;35.90;;;15.40;99.90;;;;;;4972643;28;20027;-45
2023/10/19 08:45:53;;;;;;;52.50;40.05;;;15.50;99.90;;;;;;4972621;28;20033;-49
2023/10/19 08:48:19;;;;;;;20.15;14.07;;;15.70;99.90;;;;;;4972327;28;20566;-55
2023/10/19 08:50:46;;;;;;;16.15;11.73;;;15.60;99.90;;;;;;4972492;28;20070;-48
2023/10/19 08:53:14;;;;;;;19.30;11.07;;;15.70;99.90;;;;;;4971169;28;20102;-50
2023/10/19 08:55:39;;;;;;;17.42;12.25;;;15.70;99.90;;;;;;4972327;28;20023;-47
2023/10/19 08:58:05;;;;;;;15.30;10.90;;;15.80;99.90;;;;;;4971531;28;20030;-53
2023/10/19 09:00:46;;;;;;;15.85;11.32;;;15.80;99.90;;;;;;4970782;28;20027;-47
2023/10/19 09:03:13;;;;;;;18.33;12.60;;;;;;;;;;4971654;28;20027;-47
2023/10/19 09:05:40;;;;;;;13.20;11.73;;;14.80;99.90;;;;;;4972263;28;20518;-51
2023/10/19 09:08:06;;;;;;;13.60;11.30;;;15.80;99.90;;;;;;4971832;28;20030;-55
2023/10/19 09:10:31;;;;;;;16.52;12.07;;;15.80;99.90;;;;;;4969598;28;20255;-53
2023/10/19 09:13:10;;;;;;;16.42;12.55;;;15.80;99.90;;;;;;4952370;28;20105;-50
2023/10/19 09:15:39;;;;;;;21.30;12.07;;;15.80;99.90;;;;;;4952878;28;20027;-52
2023/10/19 09:18:17;;;;;;;14.85;12.82;;;15.70;99.90;;;;;;4971305;28;20030;-48
2023/10/19 09:20:53;;;;;;;13.98;12.57;;;15.60;99.90;;;;;;4970634;28;20127;-51
2023/10/19 09:23:25;;;;;;;14.90;11.88;;;15.60;99.90;;;;;;4972070;28;20027;-50
2023/10/19 09:25:54;;;;;;;15.93;11.70;;;15.80;99.90;;;;;;4972668;28;20027;-50
2023/10/19 09:28:24;;;;;;;10.50;8.68;;;;;;;;;;4974979;28;20102;-50
2023/10/19 09:30:53;;;;;;;11.10;8.32;;;;;;;;;;4974851;28;20029;-46
2023/10/19 09:33:21;;;;;;;9.27;7.18;;;;;;;;;;4974062;28;20023;-51
2023/10/19 09:36:14;;;;;;;11.93;7.72;;;;;;;;;;4975483;28;20103;-50
2023/10/19 09:38:51;;;;;;;11.00;8.45;;;;;;;;;;4974879;28;20109;-48
2023/10/19 09:41:18;;;;;;;10.02;7.68;;;;;;;;;;4974920;28;20151;-47
2023/10/19 09:43:48;;;;;;;8.65;7.70;;;;;;;;;;4975909;28;20049;-46
2023/10/19 09:46:31;;;;;;;13.95;7.97;;;20.90;99.90;;;;;;4975369;28;20123;-47
2023/10/19 09:48:56;;;;;;;9.70;7.20;;;20.90;99.90;;;;;;4975832;28;20027;-52
2023/10/19 09:51:23;;;;;;;11.10;7.30;;;21.10;99.90;;;;;;4975726;28;20390;-48
2023/10/19 09:53:55;;;;;;;12.20;7.85;;;21.20;99.90;;;;;;4969106;28;20035;-49
2023/10/19 09:56:27;;;;;;;10.82;7.25;;;21.20;99.90;;;;;;4971766;28;20062;-60
2023/10/19 09:58:57;;;;;;;10.82;7.07;;;21.20;99.90;;;;;;4969428;28;20023;-56
2023/10/19 10:01:24;;;;;;;9.18;7.25;;;20.80;99.90;;;;;;4971195;28;20027;-55
2023/10/19 10:03:53;;;;;;;10.65;7.53;;;20.40;99.90;;;;;;4972926;28;20307;-53
2023/10/19 10:06:50;;;;;;;8.82;6.47;;;20.20;99.90;;;;;;4973087;28;20033;-55
2023/10/19 10:09:21;;;;;;;8.52;6.97;;;20.00;99.90;;;;;;4973300;28;20027;-54
2023/10/19 10:11:49;;;;;;;6.53;5.88;;;20.00;99.90;;;;;;4986692;28;20030;-49
2023/10/19 10:14:29;;;;;;;15.25;7.32;;;19.90;99.90;;;;;;4973395;28;20398;-53
2023/10/19 10:17:02;;;;;;;12.02;7.72;;;19.90;99.90;;;;;;4973254;28;20038;-61
2023/10/19 10:19:27;;;;;;;11.13;7.63;;;20.00;99.90;;;;;;4973081;28;20029;-50
2023/10/19 10:22:14;;;;;;;10.80;6.57;;;20.00;99.90;;;;;;4971166;28;20027;-55
2023/10/19 10:24:43;;;;;;;10.38;7.95;;;19.90;99.90;;;;;;4972143;28;20034;-56
2023/10/19 10:27:10;;;;;;;11.27;7.30;;;20.10;99.90;;;;;;4972530;28;20062;-57
2023/10/19 10:29:36;;;;;;;11.85;7.07;;;20.00;99.90;;;;;;4972444;28;20023;-51
2023/10/19 10:32:03;;;;;;;9.65;6.35;;;19.80;99.90;;;;;;4971134;28;20376;-52
2023/10/19 10:34:37;;;;;;;12.10;6.30;;;19.90;99.90;;;;;;4972349;28;20077;-51
2023/10/19 10:37:08;;;;;;;12.95;6.22;;;20.00;99.90;;;;;;4971233;28;20041;-54
2023/10/19 10:39:37;;;;;;;12.55;7.63;;;20.00;99.90;;;;;;4971658;28;20037;-51
2023/10/19 10:42:05;;;;;;;6.97;5.47;;;19.80;99.90;;;;;;4971189;28;20503;-53
2023/10/19 10:44:48;;;;;;;9.27;6.60;;;19.60;99.90;;;;;;4968943;28;20127;-55
2023/10/19 10:47:17;;;;;;;13.65;6.63;;;19.40;99.90;;;;;;4971713;28;20023;-56
2023/10/19 10:49:54;;;;;;;8.52;6.75;;;;;;;;;;4972063;28;20093;-54
2023/10/19 10:52:33;;;;;;;8.73;6.78;;;19.10;99.90;;;;;;4970421;28;20344;-56
2023/10/19 10:55:12;;;;;;;10.18;7.20;;;18.90;99.90;;;;;;4971069;28;20407;-55
2023/10/19 10:57:39;;;;;;;12.63;7.38;;;;;;;;;;4969828;28;20076;-54
2023/10/19 11:00:09;;;;;;;10.63;6.93;;;;;;;;;;4967443;28;20452;-58
2023/10/19 11:02:36;;;;;;;15.88;7.90;;;;;;;;;;4984783;28;20030;-55
2023/10/19 11:05:03;;;;;;;8.68;6.57;;;;;;;;;;4984960;28;20038;-55
2023/10/19 11:07:29;;;;;;;9.50;6.80;;;;;;;;;;4967143;28;20041;-59
2023/10/19 11:09:56;;;;;;;17.92;7.35;;;;;;;;;;4971295;28;20027;-59
2023/10/19 11:12:24;;;;;;;9.90;8.45;;;;;;;;;;4965317;28;20049;-59
2023/10/19 11:14:53;;;;;;;12.27;9.18;;;;;;;;;;4971467;28;20027;-59
2023/10/19 11:17:19;;;;;;;63.47;41.88;;;18.10;99.90;;;;;;4969153;28;20117;-52
2023/10/19 11:19:45;;;;;;;39.90;27.05;;;;;;;;;;4971220;28;20098;-52
2023/10/19 11:22:11;;;;;;;11.70;8.18;;;;;;;;;;4971302;28;20466;-57
2023/10/19 11:24:39;;;;;;;18.25;9.02;;;18.10;99.90;;;;;;4971690;28;20101;-47
2023/10/19 11:27:07;;;;;;;11.70;9.05;;;18.10;99.90;;;;;;4972791;28;20019;-59
2023/10/19 11:29:33;;;;;;;11.10;8.45;;;;;;;;;;4974452;28;20027;-60
2023/10/19 11:32:00;;;;;;;15.30;8.18;;;18.10;99.90;;;;;;4974682;28;20073;-57
2023/10/19 11:34:28;;;;;;;12.05;8.77;;;;;;;;;;4956273;28;20023;-60
2023/10/19 11:36:59;;;;;;;9.77;8.68;;;;;;;;;;4977055;28;20026;-51
2023/10/19 11:39:25;;;;;;;13.60;8.25;;;;;;;;;;4972768;28;20427;-49
2023/10/19 11:41:52;;;;;;;14.35;8.00;;;;;;;;;;4973153;28;20089;-50
2023/10/19 11:44:19;;;;;;;12.93;7.63;;;;;;;;;;4987507;28;20031;-54
2023/10/19 11:46:46;;;;;;;12.05;8.85;;;;;;;;;;4972188;28;20035;-57
2023/10/19 11:49:14;;;;;;;14.38;8.70;;;;;;;;;;4971849;28;20061;-54
2023/10/19 11:51:40;;;;;;;11.50;7.97;;;;;;;;;;4972588;28;20034;-53
2023/10/19 11:54:12;;;;;;;12.23;8.73;;;;;;;;;;4972668;28;20493;-53
2023/10/19 11:56:38;;;;;;;12.55;9.32;;;;;;;;;;4971442;28;20441;-50
2023/10/19 11:59:07;;;;;;;11.30;9.25;;;;;;;;;;4972761;28;20118;-50
2023/10/19 12:01:33;;;;;;;14.43;9.57;;;;;;;;;;4972985;28;20025;-48
2023/10/19 12:03:59;;;;;;;16.02;8.93;;;;;;;;;;4973015;28;20102;-49
2023/10/19 12:06:25;;;;;;;17.27;8.35;;;;;;;;;;4980328;28;20073;-47
2023/10/19 12:09:26;;;;;;;14.00;10.40;;;;;;;;;;4987670;28;20097;-47
2023/10/19 12:12:14;;;;;;;13.63;10.25;;;;;;;;;;4971937;28;20030;-48
2023/10/19 12:14:58;;;;;;;14.75;9.25;;;;;;;;;;4972987;28;20490;-49
2023/10/19 12:17:33;;;;;;;10.63;8.25;;;;;;;;;;4972812;28;20478;-55
2023/10/19 12:20:03;;;;;;;15.68;9.15;;;;;;;;;;4972762;28;20089;-51
2023/10/19 12:22:36;;;;;;;13.02;9.60;;;;;;;;;;4972910;28;20023;-54
2023/10/19 12:25:05;;;;;;;16.52;9.65;;;;;;;;;;4972648;28;20037;-50
2023/10/19 12:27:34;;;;;;;12.02;9.45;;;;;;;;;;4972620;28;20101;-50
2023/10/19 12:30:13;;;;;;;14.10;10.57;;;;;;;;;;4972505;28;20121;-55
2023/10/19 12:32:42;;;;;;;14.00;10.48;;;;;;;;;;4972799;28;20038;-53
2023/10/19 12:35:11;;;;;;;15.32;11.60;;;;;;;;;;4972750;28;20055;-51
2023/10/19 12:37:46;;;;;;;19.70;12.52;;;;;;;;;;4973019;28;20554;-52
2023/10/19 12:40:31;;;;;;;16.43;12.27;;;;;;;;;;4972976;28;20035;-48
2023/10/19 12:43:03;;;;;;;16.08;11.90;;;;;;;;;;4971526;28;20034;-48
2023/10/19 12:45:36;;;;;;;18.10;12.20;;;;;;;;;;4972798;28;20037;-49
2023/10/19 12:48:05;;;;;;;17.63;13.45;;;;;;;;;;4971392;28;20074;-52
2023/10/19 12:50:37;;;;;;;31.08;23.55;;;;;;;;;;4972609;28;20503;-53
2023/10/19 12:53:06;;;;;;;49.35;30.85;;;;;;;;;;4972352;28;20019;-48
2023/10/19 12:55:37;;;;;;;110.45;73.10;;;;;;;;;;4972559;28;20371;-46
2023/10/19 12:58:09;;;;;;;23.75;17.92;;;;;;;;;;4972392;28;20035;-48
2023/10/19 13:00:43;;;;;;;24.45;15.07;;;;;;;;;;4973564;28;20022;-50
2023/10/19 13:03:13;;;;;;;24.25;15.05;;;;;;;;;;4976192;28;20043;-53
2023/10/19 13:05:44;;;;;;;21.10;16.27;;;;;;;;;;4976209;28;20460;-50
2023/10/19 13:08:13;;;;;;;21.85;15.13;;;;;;;;;;4976163;28;20477;-50
2023/10/19 13:10:43;;;;;;;22.92;16.00;;;;;;;;;;4975875;28;20031;-51
2023/10/19 13:13:14;;;;;;;26.60;17.10;;;;;;;;;;4975630;28;20050;-50
2023/10/19 13:15:44;;;;;;;25.88;16.65;;;;;;;;;;4975931;28;20030;-47
2023/10/19 13:18:21;;;;;;;26.33;17.02;;;;;;;;;;4975297;28;20046;-49
2023/10/19 13:20:49;;;;;;;23.80;17.25;;;;;;;;;;4975618;28;20027;-48